sensor_id;sensor_type;location;lat;lon;timestamp;P1;durP1;ratioP1;P2;durP2;ratioP2
75739;SDS011;64357;51.344;6.550;2023-06-14T00:01:53;9.27;;;3.78;;
75739;SDS011;64357;51.344;6.550;2023-06-14T00:04:24;8.23;;;3.65;;
75739;SDS011;64357;51.344;6.550;2023-06-14T00:06:50;8.00;;;3.70;;
75739;SDS011;64357;51.344;6.550;2023-06-14T00:09:17;8.35;;;4.15;;
75739;SDS011;64357;51.344;6.550;2023-06-14T00:11:43;9.82;;;4.20;;
75739;SDS011;64357;51.344;6.550;2023-06-14T00:14:09;7.97;;;3.47;;
75739;SDS011;64357;51.344;6.550;2023-06-14T00:16:39;8.15;;;4.22;;
75739;SDS011;64357;51.344;6.550;2023-06-14T00:19:07;11.13;;;4.50;;
75739;SDS011;64357;51.344;6.550;2023-06-14T00:21:33;9.68;;;4.32;;
75739;SDS011;64357;51.344;6.550;2023-06-14T00:24:02;8.50;;;3.78;;
75739;SDS011;64357;51.344;6.550;2023-06-14T00:26:28;9.90;;;3.67;;
75739;SDS011;64357;51.344;6.550;2023-06-14T00:28:56;7.90;;;3.75;;
75739;SDS011;64357;51.344;6.550;2023-06-14T00:31:25;7.88;;;3.83;;
75739;SDS011;64357;51.344;6.550;2023-06-14T00:33:53;9.52;;;4.00;;
75739;SDS011;64357;51.344;6.550;2023-06-14T00:36:20;10.90;;;4.43;;
75739;SDS011;64357;51.344;6.550;2023-06-14T00:38:45;9.60;;;3.53;;
75739;SDS011;64357;51.344;6.550;2023-06-14T00:41:13;7.75;;;3.40;;
75739;SDS011;64357;51.344;6.550;2023-06-14T00:43:41;9.63;;;3.90;;
75739;SDS011;64357;51.344;6.550;2023-06-14T00:46:06;8.50;;;4.03;;
75739;SDS011;64357;51.344;6.550;2023-06-14T00:48:32;10.00;;;3.50;;
75739;SDS011;64357;51.344;6.550;2023-06-14T00:51:01;9.73;;;4.00;;
75739;SDS011;64357;51.344;6.550;2023-06-14T00:53:31;7.82;;;3.60;;
75739;SDS011;64357;51.344;6.550;2023-06-14T00:55:59;8.40;;;4.15;;
75739;SDS011;64357;51.344;6.550;2023-06-14T00:58:24;8.40;;;3.88;;
75739;SDS011;64357;51.344;6.550;2023-06-14T01:00:51;8.45;;;3.72;;
75739;SDS011;64357;51.344;6.550;2023-06-14T01:03:19;8.65;;;4.00;;
75739;SDS011;64357;51.344;6.550;2023-06-14T01:05:47;9.32;;;3.83;;
75739;SDS011;64357;51.344;6.550;2023-06-14T01:09:01;10.02;;;4.13;;
75739;SDS011;64357;51.344;6.550;2023-06-14T01:11:12;8.60;;;3.90;;
75739;SDS011;64357;51.344;6.550;2023-06-14T01:13:45;9.80;;;3.50;;
75739;SDS011;64357;51.344;6.550;2023-06-14T01:16:13;10.93;;;3.65;;
75739;SDS011;64357;51.344;6.550;2023-06-14T01:18:39;8.90;;;3.75;;
75739;SDS011;64357;51.344;6.550;2023-06-14T01:21:06;8.13;;;3.85;;
75739;SDS011;64357;51.344;6.550;2023-06-14T01:23:45;10.98;;;3.97;;
75739;SDS011;64357;51.344;6.550;2023-06-14T01:26:13;8.85;;;3.55;;
75739;SDS011;64357;51.344;6.550;2023-06-14T01:28:43;8.45;;;3.65;;
75739;SDS011;64357;51.344;6.550;2023-06-14T01:31:13;11.82;;;4.00;;
75739;SDS011;64357;51.344;6.550;2023-06-14T01:33:42;11.30;;;3.65;;
75739;SDS011;64357;51.344;6.550;2023-06-14T01:36:08;9.48;;;3.92;;
75739;SDS011;64357;51.344;6.550;2023-06-14T01:38:34;7.72;;;3.95;;
75739;SDS011;64357;51.344;6.550;2023-06-14T01:41:04;9.43;;;3.58;;
75739;SDS011;64357;51.344;6.550;2023-06-14T01:43:30;12.48;;;6.28;;
75739;SDS011;64357;51.344;6.550;2023-06-14T01:46:02;8.77;;;3.60;;
75739;SDS011;64357;51.344;6.550;2023-06-14T01:48:28;11.07;;;3.83;;
75739;SDS011;64357;51.344;6.550;2023-06-14T01:50:54;9.60;;;3.78;;
75739;SDS011;64357;51.344;6.550;2023-06-14T01:53:22;7.88;;;3.30;;
75739;SDS011;64357;51.344;6.550;2023-06-14T01:55:48;7.97;;;3.70;;
75739;SDS011;64357;51.344;6.550;2023-06-14T01:58:17;8.65;;;4.28;;
75739;SDS011;64357;51.344;6.550;2023-06-14T02:00:45;8.40;;;3.45;;
75739;SDS011;64357;51.344;6.550;2023-06-14T02:03:13;8.40;;;3.47;;
75739;SDS011;64357;51.344;6.550;2023-06-14T02:05:38;9.73;;;3.67;;
75739;SDS011;64357;51.344;6.550;2023-06-14T02:08:04;8.07;;;3.80;;
75739;SDS011;64357;51.344;6.550;2023-06-14T02:10:30;9.50;;;3.85;;
75739;SDS011;64357;51.344;6.550;2023-06-14T02:12:56;7.30;;;3.17;;
75739;SDS011;64357;51.344;6.550;2023-06-14T02:15:21;8.43;;;3.25;;
75739;SDS011;64357;51.344;6.550;2023-06-14T02:17:47;7.78;;;3.00;;
75739;SDS011;64357;51.344;6.550;2023-06-14T02:20:14;9.18;;;3.47;;
75739;SDS011;64357;51.344;6.550;2023-06-14T02:22:39;8.57;;;3.58;;
75739;SDS011;64357;51.344;6.550;2023-06-14T02:25:05;9.68;;;3.50;;
75739;SDS011;64357;51.344;6.550;2023-06-14T02:27:31;7.30;;;3.50;;
75739;SDS011;64357;51.344;6.550;2023-06-14T02:29:57;10.93;;;3.63;;
75739;SDS011;64357;51.344;6.550;2023-06-14T02:32:22;7.37;;;3.50;;
75739;SDS011;64357;51.344;6.550;2023-06-14T02:34:48;9.30;;;3.38;;
75739;SDS011;64357;51.344;6.550;2023-06-14T02:37:15;9.15;;;3.63;;
75739;SDS011;64357;51.344;6.550;2023-06-14T02:39:41;6.65;;;3.22;;
75739;SDS011;64357;51.344;6.550;2023-06-14T02:42:06;8.82;;;3.53;;
75739;SDS011;64357;51.344;6.550;2023-06-14T02:44:32;9.98;;;3.30;;
75739;SDS011;64357;51.344;6.550;2023-06-14T02:46:57;7.28;;;3.10;;
75739;SDS011;64357;51.344;6.550;2023-06-14T02:49:26;7.47;;;3.33;;
75739;SDS011;64357;51.344;6.550;2023-06-14T02:51:57;8.43;;;3.90;;
75739;SDS011;64357;51.344;6.550;2023-06-14T02:54:22;8.95;;;3.17;;
75739;SDS011;64357;51.344;6.550;2023-06-14T02:56:47;8.13;;;3.60;;
75739;SDS011;64357;51.344;6.550;2023-06-14T02:59:13;8.52;;;3.83;;
75739;SDS011;64357;51.344;6.550;2023-06-14T03:01:39;8.35;;;3.63;;
75739;SDS011;64357;51.344;6.550;2023-06-14T03:04:06;8.73;;;3.47;;
75739;SDS011;64357;51.344;6.550;2023-06-14T03:06:35;6.70;;;3.60;;
75739;SDS011;64357;51.344;6.550;2023-06-14T03:09:01;7.40;;;3.38;;
75739;SDS011;64357;51.344;6.550;2023-06-14T03:11:29;10.35;;;3.47;;
75739;SDS011;64357;51.344;6.550;2023-06-14T03:14:00;8.45;;;3.10;;
75739;SDS011;64357;51.344;6.550;2023-06-14T03:16:25;8.60;;;3.10;;
75739;SDS011;64357;51.344;6.550;2023-06-14T03:18:53;7.00;;;3.28;;
75739;SDS011;64357;51.344;6.550;2023-06-14T03:21:19;8.40;;;3.67;;
75739;SDS011;64357;51.344;6.550;2023-06-14T03:23:50;7.97;;;3.88;;
75739;SDS011;64357;51.344;6.550;2023-06-14T03:26:16;8.80;;;3.30;;
75739;SDS011;64357;51.344;6.550;2023-06-14T03:28:44;8.02;;;3.15;;
75739;SDS011;64357;51.344;6.550;2023-06-14T03:31:13;7.75;;;3.42;;
75739;SDS011;64357;51.344;6.550;2023-06-14T03:33:39;8.30;;;3.28;;
75739;SDS011;64357;51.344;6.550;2023-06-14T03:36:05;7.93;;;3.15;;
75739;SDS011;64357;51.344;6.550;2023-06-14T03:38:31;7.95;;;3.20;;
75739;SDS011;64357;51.344;6.550;2023-06-14T03:40:59;9.82;;;3.70;;
75739;SDS011;64357;51.344;6.550;2023-06-14T03:43:25;8.88;;;3.10;;
75739;SDS011;64357;51.344;6.550;2023-06-14T03:45:50;7.82;;;3.45;;
75739;SDS011;64357;51.344;6.550;2023-06-14T03:48:18;6.97;;;3.10;;
75739;SDS011;64357;51.344;6.550;2023-06-14T03:50:44;7.53;;;3.40;;
75739;SDS011;64357;51.344;6.550;2023-06-14T03:53:12;8.73;;;3.10;;
75739;SDS011;64357;51.344;6.550;2023-06-14T03:55:42;7.57;;;3.20;;
75739;SDS011;64357;51.344;6.550;2023-06-14T03:58:07;12.15;;;4.78;;
75739;SDS011;64357;51.344;6.550;2023-06-14T04:00:33;9.20;;;3.67;;
75739;SDS011;64357;51.344;6.550;2023-06-14T04:03:00;8.65;;;3.30;;
75739;SDS011;64357;51.344;6.550;2023-06-14T04:05:30;7.60;;;3.67;;
75739;SDS011;64357;51.344;6.550;2023-06-14T04:07:56;8.02;;;3.08;;
75739;SDS011;64357;51.344;6.550;2023-06-14T04:10:26;6.38;;;2.97;;
75739;SDS011;64357;51.344;6.550;2023-06-14T04:12:51;10.13;;;3.95;;
75739;SDS011;64357;51.344;6.550;2023-06-14T04:15:22;10.10;;;3.80;;
75739;SDS011;64357;51.344;6.550;2023-06-14T04:17:47;8.48;;;3.15;;
75739;SDS011;64357;51.344;6.550;2023-06-14T04:20:13;9.43;;;3.65;;
75739;SDS011;64357;51.344;6.550;2023-06-14T04:22:38;10.23;;;3.90;;
75739;SDS011;64357;51.344;6.550;2023-06-14T04:25:04;12.33;;;3.40;;
75739;SDS011;64357;51.344;6.550;2023-06-14T04:27:31;7.53;;;3.08;;
75739;SDS011;64357;51.344;6.550;2023-06-14T04:30:00;7.95;;;3.30;;
75739;SDS011;64357;51.344;6.550;2023-06-14T04:32:28;6.97;;;3.35;;
75739;SDS011;64357;51.344;6.550;2023-06-14T04:35:03;6.85;;;3.03;;
75739;SDS011;64357;51.344;6.550;2023-06-14T04:37:30;7.78;;;3.28;;
75739;SDS011;64357;51.344;6.550;2023-06-14T04:39:55;9.23;;;3.13;;
75739;SDS011;64357;51.344;6.550;2023-06-14T04:42:23;7.50;;;3.03;;
75739;SDS011;64357;51.344;6.550;2023-06-14T04:44:55;9.80;;;3.60;;
75739;SDS011;64357;51.344;6.550;2023-06-14T04:47:23;9.32;;;3.33;;
75739;SDS011;64357;51.344;6.550;2023-06-14T04:49:54;8.02;;;3.17;;
75739;SDS011;64357;51.344;6.550;2023-06-14T04:52:25;8.10;;;3.63;;
75739;SDS011;64357;51.344;6.550;2023-06-14T04:54:51;7.53;;;3.05;;
75739;SDS011;64357;51.344;6.550;2023-06-14T04:57:19;7.45;;;3.13;;
75739;SDS011;64357;51.344;6.550;2023-06-14T04:59:47;9.52;;;3.10;;
75739;SDS011;64357;51.344;6.550;2023-06-14T05:02:12;7.93;;;3.00;;
75739;SDS011;64357;51.344;6.550;2023-06-14T05:04:38;7.28;;;3.00;;
75739;SDS011;64357;51.344;6.550;2023-06-14T05:07:06;7.80;;;2.83;;
75739;SDS011;64357;51.344;6.550;2023-06-14T05:09:34;9.35;;;3.15;;
75739;SDS011;64357;51.344;6.550;2023-06-14T05:12:02;8.13;;;3.40;;
75739;SDS011;64357;51.344;6.550;2023-06-14T05:14:29;6.78;;;2.80;;
75739;SDS011;64357;51.344;6.550;2023-06-14T05:16:54;10.40;;;2.80;;
75739;SDS011;64357;51.344;6.550;2023-06-14T05:19:22;10.27;;;3.15;;
75739;SDS011;64357;51.344;6.550;2023-06-14T05:21:47;8.55;;;2.65;;
75739;SDS011;64357;51.344;6.550;2023-06-14T05:24:15;7.25;;;2.80;;
75739;SDS011;64357;51.344;6.550;2023-06-14T05:26:42;8.07;;;3.10;;
75739;SDS011;64357;51.344;6.550;2023-06-14T05:29:10;7.13;;;2.80;;
75739;SDS011;64357;51.344;6.550;2023-06-14T05:31:36;7.93;;;2.80;;
75739;SDS011;64357;51.344;6.550;2023-06-14T05:34:01;8.77;;;2.97;;
75739;SDS011;64357;51.344;6.550;2023-06-14T05:36:27;7.77;;;3.13;;
75739;SDS011;64357;51.344;6.550;2023-06-14T05:38:53;7.93;;;2.35;;
75739;SDS011;64357;51.344;6.550;2023-06-14T05:41:24;6.85;;;3.05;;
75739;SDS011;64357;51.344;6.550;2023-06-14T05:43:53;7.82;;;2.78;;
75739;SDS011;64357;51.344;6.550;2023-06-14T05:46:20;7.90;;;2.72;;
75739;SDS011;64357;51.344;6.550;2023-06-14T05:48:47;10.45;;;2.90;;
75739;SDS011;64357;51.344;6.550;2023-06-14T05:51:13;7.97;;;2.60;;
75739;SDS011;64357;51.344;6.550;2023-06-14T05:53:39;10.43;;;3.25;;
75739;SDS011;64357;51.344;6.550;2023-06-14T05:56:07;9.48;;;2.72;;
75739;SDS011;64357;51.344;6.550;2023-06-14T05:58:32;10.30;;;2.90;;
75739;SDS011;64357;51.344;6.550;2023-06-14T06:01:00;10.07;;;3.07;;
75739;SDS011;64357;51.344;6.550;2023-06-14T06:03:30;7.57;;;2.70;;
75739;SDS011;64357;51.344;6.550;2023-06-14T06:05:59;7.00;;;2.75;;
75739;SDS011;64357;51.344;6.550;2023-06-14T06:08:27;9.27;;;3.58;;
75739;SDS011;64357;51.344;6.550;2023-06-14T06:10:52;9.37;;;2.90;;
75739;SDS011;64357;51.344;6.550;2023-06-14T06:13:18;9.63;;;2.80;;
75739;SDS011;64357;51.344;6.550;2023-06-14T06:15:44;10.52;;;3.28;;
75739;SDS011;64357;51.344;6.550;2023-06-14T06:18:09;11.93;;;2.97;;
75739;SDS011;64357;51.344;6.550;2023-06-14T06:20:36;9.83;;;2.50;;
75739;SDS011;64357;51.344;6.550;2023-06-14T06:23:04;10.25;;;2.97;;
75739;SDS011;64357;51.344;6.550;2023-06-14T06:25:29;11.57;;;2.77;;
75739;SDS011;64357;51.344;6.550;2023-06-14T06:27:56;7.55;;;2.72;;
75739;SDS011;64357;51.344;6.550;2023-06-14T06:30:23;8.30;;;2.30;;
75739;SDS011;64357;51.344;6.550;2023-06-14T06:32:49;5.20;;;1.80;;
75739;SDS011;64357;51.344;6.550;2023-06-14T06:35:15;5.85;;;2.22;;
75739;SDS011;64357;51.344;6.550;2023-06-14T06:37:43;4.30;;;1.85;;
75739;SDS011;64357;51.344;6.550;2023-06-14T06:40:08;5.47;;;2.05;;
75739;SDS011;64357;51.344;6.550;2023-06-14T06:42:34;3.92;;;1.70;;
75739;SDS011;64357;51.344;6.550;2023-06-14T06:47:56;5.60;;;1.70;;
75739;SDS011;64357;51.344;6.550;2023-06-14T06:50:22;5.83;;;2.23;;
75739;SDS011;64357;51.344;6.550;2023-06-14T06:52:49;6.57;;;1.98;;
75739;SDS011;64357;51.344;6.550;2023-06-14T06:55:18;4.07;;;1.70;;
75739;SDS011;64357;51.344;6.550;2023-06-14T06:57:43;4.97;;;1.83;;
75739;SDS011;64357;51.344;6.550;2023-06-14T07:00:09;5.47;;;2.03;;
75739;SDS011;64357;51.344;6.550;2023-06-14T07:02:37;7.13;;;2.00;;
75739;SDS011;64357;51.344;6.550;2023-06-14T07:05:03;5.77;;;1.77;;
75739;SDS011;64357;51.344;6.550;2023-06-14T07:07:29;6.47;;;1.98;;
75739;SDS011;64357;51.344;6.550;2023-06-14T07:09:54;4.55;;;1.95;;
75739;SDS011;64357;51.344;6.550;2023-06-14T07:12:22;4.45;;;1.85;;
75739;SDS011;64357;51.344;6.550;2023-06-14T07:14:48;3.08;;;1.40;;
75739;SDS011;64357;51.344;6.550;2023-06-14T07:17:13;3.78;;;1.63;;
75739;SDS011;64357;51.344;6.550;2023-06-14T07:19:45;4.55;;;1.85;;
75739;SDS011;64357;51.344;6.550;2023-06-14T07:22:18;4.18;;;1.50;;
75739;SDS011;64357;51.344;6.550;2023-06-14T07:24:46;4.38;;;1.75;;
75739;SDS011;64357;51.344;6.550;2023-06-14T07:27:14;4.18;;;1.65;;
75739;SDS011;64357;51.344;6.550;2023-06-14T07:29:42;4.22;;;1.63;;
75739;SDS011;64357;51.344;6.550;2023-06-14T07:34:35;6.00;;;1.83;;
75739;SDS011;64357;51.344;6.550;2023-06-14T07:37:10;5.38;;;1.73;;
75739;SDS011;64357;51.344;6.550;2023-06-14T07:39:35;4.07;;;1.60;;
75739;SDS011;64357;51.344;6.550;2023-06-14T07:42:00;4.47;;;1.30;;
75739;SDS011;64357;51.344;6.550;2023-06-14T07:44:27;3.13;;;1.30;;
75739;SDS011;64357;51.344;6.550;2023-06-14T07:46:56;4.65;;;1.60;;
75739;SDS011;64357;51.344;6.550;2023-06-14T07:49:24;4.97;;;1.73;;
75739;SDS011;64357;51.344;6.550;2023-06-14T07:51:51;5.60;;;1.58;;
75739;SDS011;64357;51.344;6.550;2023-06-14T07:54:20;6.25;;;1.80;;
75739;SDS011;64357;51.344;6.550;2023-06-14T07:56:50;4.80;;;1.60;;
75739;SDS011;64357;51.344;6.550;2023-06-14T07:59:17;4.82;;;1.60;;
75739;SDS011;64357;51.344;6.550;2023-06-14T08:01:44;4.93;;;1.73;;
75739;SDS011;64357;51.344;6.550;2023-06-14T08:04:18;5.63;;;1.80;;
75739;SDS011;64357;51.344;6.550;2023-06-14T08:06:49;4.93;;;1.35;;
75739;SDS011;64357;51.344;6.550;2023-06-14T08:09:18;6.45;;;1.80;;
75739;SDS011;64357;51.344;6.550;2023-06-14T08:11:44;2.97;;;1.30;;
75739;SDS011;64357;51.344;6.550;2023-06-14T08:14:09;5.20;;;1.60;;
75739;SDS011;64357;51.344;6.550;2023-06-14T08:16:35;4.03;;;1.40;;
75739;SDS011;64357;51.344;6.550;2023-06-14T08:19:03;3.10;;;1.20;;
75739;SDS011;64357;51.344;6.550;2023-06-14T08:22:23;3.30;;;1.48;;
75739;SDS011;64357;51.344;6.550;2023-06-14T08:24:49;4.35;;;1.40;;
75739;SDS011;64357;51.344;6.550;2023-06-14T08:27:15;3.65;;;1.33;;
75739;SDS011;64357;51.344;6.550;2023-06-14T08:29:50;4.65;;;1.33;;
75739;SDS011;64357;51.344;6.550;2023-06-14T08:32:19;3.10;;;1.13;;
75739;SDS011;64357;51.344;6.550;2023-06-14T08:34:53;2.00;;;1.17;;
75739;SDS011;64357;51.344;6.550;2023-06-14T08:37:21;6.05;;;1.63;;
75739;SDS011;64357;51.344;6.550;2023-06-14T08:39:47;4.07;;;1.50;;
75739;SDS011;64357;51.344;6.550;2023-06-14T08:42:14;4.07;;;1.50;;
75739;SDS011;64357;51.344;6.550;2023-06-14T08:44:39;4.65;;;1.40;;
75739;SDS011;64357;51.344;6.550;2023-06-14T08:47:05;3.65;;;1.65;;
75739;SDS011;64357;51.344;6.550;2023-06-14T08:49:33;2.65;;;1.58;;
75739;SDS011;64357;51.344;6.550;2023-06-14T08:52:06;4.10;;;1.60;;
75739;SDS011;64357;51.344;6.550;2023-06-14T08:54:37;4.47;;;1.73;;
75739;SDS011;64357;51.344;6.550;2023-06-14T08:57:10;3.75;;;1.55;;
75739;SDS011;64357;51.344;6.550;2023-06-14T08:59:41;4.93;;;2.13;;
75739;SDS011;64357;51.344;6.550;2023-06-14T09:02:14;6.15;;;2.10;;
75739;SDS011;64357;51.344;6.550;2023-06-14T09:04:42;5.20;;;1.40;;
75739;SDS011;64357;51.344;6.550;2023-06-14T09:07:09;2.97;;;1.70;;
75739;SDS011;64357;51.344;6.550;2023-06-14T09:09:38;6.38;;;1.85;;
75739;SDS011;64357;51.344;6.550;2023-06-14T09:12:06;5.47;;;1.70;;
75739;SDS011;64357;51.344;6.550;2023-06-14T09:14:35;5.80;;;1.85;;
75739;SDS011;64357;51.344;6.550;2023-06-14T09:17:03;3.92;;;1.70;;
75739;SDS011;64357;51.344;6.550;2023-06-14T09:19:31;6.13;;;1.95;;
75739;SDS011;64357;51.344;6.550;2023-06-14T09:22:02;5.80;;;1.70;;
75739;SDS011;64357;51.344;6.550;2023-06-14T09:24:39;3.03;;;1.48;;
75739;SDS011;64357;51.344;6.550;2023-06-14T09:27:08;3.70;;;1.67;;
75739;SDS011;64357;51.344;6.550;2023-06-14T09:29:39;4.68;;;1.63;;
75739;SDS011;64357;51.344;6.550;2023-06-14T09:32:05;6.70;;;1.90;;
75739;SDS011;64357;51.344;6.550;2023-06-14T09:34:34;6.20;;;1.75;;
75739;SDS011;64357;51.344;6.550;2023-06-14T09:37:18;4.55;;;1.55;;
75739;SDS011;64357;51.344;6.550;2023-06-14T09:40:13;3.17;;;1.58;;
75739;SDS011;64357;51.344;6.550;2023-06-14T09:42:49;11.13;;;5.43;;
75739;SDS011;64357;51.344;6.550;2023-06-14T09:45:17;3.53;;;1.67;;
75739;SDS011;64357;51.344;6.550;2023-06-14T09:47:48;3.03;;;1.88;;
75739;SDS011;64357;51.344;6.550;2023-06-14T09:50:14;5.45;;;2.20;;
75739;SDS011;64357;51.344;6.550;2023-06-14T09:52:44;5.28;;;1.80;;
75739;SDS011;64357;51.344;6.550;2023-06-14T09:55:12;5.53;;;1.80;;
75739;SDS011;64357;51.344;6.550;2023-06-14T09:57:43;5.35;;;1.92;;
75739;SDS011;64357;51.344;6.550;2023-06-14T10:00:12;4.50;;;2.22;;
75739;SDS011;64357;51.344;6.550;2023-06-14T10:02:40;2.90;;;1.58;;
75739;SDS011;64357;51.344;6.550;2023-06-14T10:05:15;6.07;;;2.13;;
75739;SDS011;64357;51.344;6.550;2023-06-14T10:10:19;4.75;;;1.65;;
75739;SDS011;64357;51.344;6.550;2023-06-14T10:12:45;3.05;;;1.33;;
75739;SDS011;64357;51.344;6.550;2023-06-14T10:15:22;3.65;;;1.30;;
75739;SDS011;64357;51.344;6.550;2023-06-14T10:17:57;2.55;;;1.35;;
75739;SDS011;64357;51.344;6.550;2023-06-14T10:20:44;3.35;;;1.92;;
75739;SDS011;64357;51.344;6.550;2023-06-14T10:23:18;4.05;;;1.42;;
75739;SDS011;64357;51.344;6.550;2023-06-14T10:25:50;4.30;;;1.42;;
75739;SDS011;64357;51.344;6.550;2023-06-14T10:28:21;2.75;;;1.27;;
75739;SDS011;64357;51.344;6.550;2023-06-14T10:33:50;3.10;;;1.35;;
75739;SDS011;64357;51.344;6.550;2023-06-14T10:38:49;2.63;;;1.30;;
75739;SDS011;64357;51.344;6.550;2023-06-14T10:41:33;5.00;;;1.50;;
75739;SDS011;64357;51.344;6.550;2023-06-14T10:44:10;6.18;;;1.45;;
75739;SDS011;64357;51.344;6.550;2023-06-14T10:47:00;3.65;;;1.42;;
75739;SDS011;64357;51.344;6.550;2023-06-14T10:49:36;2.63;;;1.20;;
75739;SDS011;64357;51.344;6.550;2023-06-14T10:52:08;3.22;;;1.52;;
75739;SDS011;64357;51.344;6.550;2023-06-14T10:57:48;3.63;;;1.17;;
75739;SDS011;64357;51.344;6.550;2023-06-14T11:00:24;3.78;;;1.23;;
75739;SDS011;64357;51.344;6.550;2023-06-14T11:10:54;3.45;;;1.60;;
75739;SDS011;64357;51.344;6.550;2023-06-14T11:13:26;4.82;;;2.15;;
75739;SDS011;64357;51.344;6.550;2023-06-14T11:15:52;3.90;;;1.55;;
75739;SDS011;64357;51.344;6.550;2023-06-14T11:18:24;2.33;;;1.02;;
75739;SDS011;64357;51.344;6.550;2023-06-14T11:20:58;4.00;;;1.15;;
75739;SDS011;64357;51.344;6.550;2023-06-14T11:23:23;2.15;;;1.00;;
75739;SDS011;64357;51.344;6.550;2023-06-14T11:25:53;2.70;;;1.00;;
75739;SDS011;64357;51.344;6.550;2023-06-14T11:28:20;1.65;;;1.02;;
75739;SDS011;64357;51.344;6.550;2023-06-14T11:30:48;3.80;;;1.00;;
75739;SDS011;64357;51.344;6.550;2023-06-14T11:33:29;2.88;;;1.10;;
75739;SDS011;64357;51.344;6.550;2023-06-14T11:35:57;3.35;;;0.95;;
75739;SDS011;64357;51.344;6.550;2023-06-14T11:38:25;2.13;;;1.20;;
75739;SDS011;64357;51.344;6.550;2023-06-14T11:40:52;2.08;;;1.10;;
75739;SDS011;64357;51.344;6.550;2023-06-14T11:43:18;2.03;;;1.30;;
75739;SDS011;64357;51.344;6.550;2023-06-14T11:45:43;3.88;;;1.33;;
75739;SDS011;64357;51.344;6.550;2023-06-14T11:48:41;3.50;;;1.10;;
75739;SDS011;64357;51.344;6.550;2023-06-14T11:51:17;2.92;;;1.20;;
75739;SDS011;64357;51.344;6.550;2023-06-14T11:53:53;2.90;;;1.40;;
75739;SDS011;64357;51.344;6.550;2023-06-14T11:56:22;2.42;;;1.40;;
75739;SDS011;64357;51.344;6.550;2023-06-14T11:59:20;2.13;;;1.13;;
75739;SDS011;64357;51.344;6.550;2023-06-14T12:01:56;2.33;;;1.15;;
75739;SDS011;64357;51.344;6.550;2023-06-14T12:04:28;3.35;;;1.05;;
75739;SDS011;64357;51.344;6.550;2023-06-14T12:06:57;11.82;;;1.63;;
75739;SDS011;64357;51.344;6.550;2023-06-14T12:09:22;5.10;;;1.25;;
75739;SDS011;64357;51.344;6.550;2023-06-14T12:11:49;2.38;;;1.13;;
75739;SDS011;64357;51.344;6.550;2023-06-14T12:14:27;4.05;;;1.00;;
75739;SDS011;64357;51.344;6.550;2023-06-14T12:17:05;4.05;;;1.10;;
75739;SDS011;64357;51.344;6.550;2023-06-14T12:19:34;3.45;;;1.20;;
75739;SDS011;64357;51.344;6.550;2023-06-14T12:24:35;3.92;;;1.20;;
75739;SDS011;64357;51.344;6.550;2023-06-14T12:27:03;2.47;;;1.20;;
75739;SDS011;64357;51.344;6.550;2023-06-14T12:29:33;4.88;;;1.30;;
75739;SDS011;64357;51.344;6.550;2023-06-14T12:31:58;3.50;;;1.20;;
75739;SDS011;64357;51.344;6.550;2023-06-14T12:34:28;1.75;;;1.00;;
75739;SDS011;64357;51.344;6.550;2023-06-14T12:36:53;3.50;;;1.40;;
75739;SDS011;64357;51.344;6.550;2023-06-14T12:39:20;4.43;;;1.40;;
75739;SDS011;64357;51.344;6.550;2023-06-14T12:41:46;5.55;;;2.00;;
75739;SDS011;64357;51.344;6.550;2023-06-14T12:44:11;3.83;;;1.50;;
75739;SDS011;64357;51.344;6.550;2023-06-14T12:46:37;4.28;;;1.63;;
75739;SDS011;64357;51.344;6.550;2023-06-14T12:49:15;5.40;;;1.10;;
75739;SDS011;64357;51.344;6.550;2023-06-14T12:51:50;2.85;;;1.25;;
75739;SDS011;64357;51.344;6.550;2023-06-14T12:54:16;5.03;;;1.40;;
75739;SDS011;64357;51.344;6.550;2023-06-14T12:56:42;2.40;;;1.27;;
75739;SDS011;64357;51.344;6.550;2023-06-14T12:59:12;2.88;;;1.58;;
75739;SDS011;64357;51.344;6.550;2023-06-14T13:01:42;2.33;;;1.30;;
75739;SDS011;64357;51.344;6.550;2023-06-14T13:04:15;2.63;;;1.05;;
75739;SDS011;64357;51.344;6.550;2023-06-14T13:06:41;4.40;;;1.67;;
75739;SDS011;64357;51.344;6.550;2023-06-14T13:09:06;2.67;;;0.95;;
75739;SDS011;64357;51.344;6.550;2023-06-14T13:11:33;7.45;;;2.08;;
75739;SDS011;64357;51.344;6.550;2023-06-14T13:13:58;4.32;;;1.02;;
75739;SDS011;64357;51.344;6.550;2023-06-14T13:16:24;2.80;;;1.30;;
75739;SDS011;64357;51.344;6.550;2023-06-14T13:18:50;3.45;;;1.40;;
75739;SDS011;64357;51.344;6.550;2023-06-14T13:21:21;3.03;;;1.30;;
75739;SDS011;64357;51.344;6.550;2023-06-14T13:23:53;3.67;;;1.13;;
75739;SDS011;64357;51.344;6.550;2023-06-14T13:26:29;4.05;;;1.10;;
75739;SDS011;64357;51.344;6.550;2023-06-14T13:28:54;3.53;;;1.25;;
75739;SDS011;64357;51.344;6.550;2023-06-14T13:31:20;3.83;;;1.30;;
75739;SDS011;64357;51.344;6.550;2023-06-14T13:33:45;2.78;;;1.35;;
75739;SDS011;64357;51.344;6.550;2023-06-14T13:36:21;4.03;;;1.50;;
75739;SDS011;64357;51.344;6.550;2023-06-14T13:38:47;4.03;;;1.20;;
75739;SDS011;64357;51.344;6.550;2023-06-14T13:41:12;3.03;;;1.02;;
75739;SDS011;64357;51.344;6.550;2023-06-14T13:43:38;2.80;;;1.00;;
75739;SDS011;64357;51.344;6.550;2023-06-14T13:46:06;3.72;;;1.48;;
75739;SDS011;64357;51.344;6.550;2023-06-14T13:48:33;2.80;;;1.40;;
75739;SDS011;64357;51.344;6.550;2023-06-14T13:51:23;4.53;;;1.40;;
75739;SDS011;64357;51.344;6.550;2023-06-14T13:54:00;4.35;;;2.00;;
75739;SDS011;64357;51.344;6.550;2023-06-14T13:56:39;5.57;;;1.45;;
75739;SDS011;64357;51.344;6.550;2023-06-14T13:59:20;3.08;;;1.27;;
75739;SDS011;64357;51.344;6.550;2023-06-14T14:01:46;3.47;;;1.40;;
75739;SDS011;64357;51.344;6.550;2023-06-14T14:04:14;4.85;;;1.42;;
75739;SDS011;64357;51.344;6.550;2023-06-14T14:06:41;2.83;;;1.50;;
75739;SDS011;64357;51.344;6.550;2023-06-14T14:09:08;2.72;;;1.50;;
75739;SDS011;64357;51.344;6.550;2023-06-14T14:11:37;4.07;;;1.50;;
75739;SDS011;64357;51.344;6.550;2023-06-14T14:14:03;6.30;;;1.65;;
75739;SDS011;64357;51.344;6.550;2023-06-14T14:16:29;3.53;;;1.40;;
75739;SDS011;64357;51.344;6.550;2023-06-14T14:18:59;3.58;;;1.40;;
75739;SDS011;64357;51.344;6.550;2023-06-14T14:21:25;4.75;;;1.65;;
75739;SDS011;64357;51.344;6.550;2023-06-14T14:23:58;4.03;;;1.58;;
75739;SDS011;64357;51.344;6.550;2023-06-14T14:26:24;3.72;;;1.58;;
75739;SDS011;64357;51.344;6.550;2023-06-14T14:28:50;4.35;;;2.03;;
75739;SDS011;64357;51.344;6.550;2023-06-14T14:31:17;3.55;;;1.65;;
75739;SDS011;64357;51.344;6.550;2023-06-14T14:33:46;3.45;;;1.60;;
75739;SDS011;64357;51.344;6.550;2023-06-14T14:36:11;2.88;;;1.38;;
75739;SDS011;64357;51.344;6.550;2023-06-14T14:38:38;3.72;;;1.80;;
75739;SDS011;64357;51.344;6.550;2023-06-14T14:41:06;4.38;;;2.05;;
75739;SDS011;64357;51.344;6.550;2023-06-14T14:43:34;4.47;;;2.03;;
75739;SDS011;64357;51.344;6.550;2023-06-14T14:46:00;3.20;;;1.38;;
75739;SDS011;64357;51.344;6.550;2023-06-14T14:48:25;5.00;;;2.53;;
75739;SDS011;64357;51.344;6.550;2023-06-14T14:50:51;2.53;;;1.40;;
75739;SDS011;64357;51.344;6.550;2023-06-14T14:53:19;6.00;;;2.08;;
75739;SDS011;64357;51.344;6.550;2023-06-14T14:55:44;4.07;;;1.63;;
75739;SDS011;64357;51.344;6.550;2023-06-14T14:58:11;3.47;;;1.58;;
75739;SDS011;64357;51.344;6.550;2023-06-14T15:00:37;3.20;;;1.50;;
75739;SDS011;64357;51.344;6.550;2023-06-14T15:03:03;3.70;;;1.63;;
75739;SDS011;64357;51.344;6.550;2023-06-14T15:05:28;3.70;;;1.90;;
75739;SDS011;64357;51.344;6.550;2023-06-14T15:07:56;3.00;;;1.50;;
75739;SDS011;64357;51.344;6.550;2023-06-14T15:10:23;3.67;;;1.63;;
75739;SDS011;64357;51.344;6.550;2023-06-14T15:12:52;3.20;;;1.50;;
75739;SDS011;64357;51.344;6.550;2023-06-14T15:15:21;5.50;;;1.70;;
75739;SDS011;64357;51.344;6.550;2023-06-14T15:17:53;5.35;;;1.60;;
75739;SDS011;64357;51.344;6.550;2023-06-14T15:20:19;2.05;;;1.33;;
75739;SDS011;64357;51.344;6.550;2023-06-14T15:22:50;3.45;;;1.50;;